createdAt,value
2022-07-26T00:00:25.209Z,26.55
2022-07-26T00:02:55.330Z,26.58
2022-07-26T00:05:25.643Z,26.33
2022-07-26T00:08:10.897Z,26.25
2022-07-26T00:10:44.185Z,26.28
2022-07-26T00:13:17.568Z,26.19
2022-07-26T00:15:48.420Z,26.12
2022-07-26T00:18:20.392Z,26.12
2022-07-26T00:20:50.769Z,25.96
2022-07-26T00:23:22.126Z,25.77
2022-07-26T00:25:52.374Z,25.74
2022-07-26T00:28:25.191Z,25.81
2022-07-26T00:30:55.361Z,25.83
2022-07-26T00:33:25.503Z,25.78
2022-07-26T00:35:55.733Z,25.83
2022-07-26T00:38:25.874Z,25.73
2022-07-26T00:40:56.499Z,25.49
2022-07-26T00:43:29.427Z,25.38
2022-07-26T00:45:59.915Z,25.18
2022-07-26T00:48:30.203Z,25.15
2022-07-26T00:51:01.073Z,25.31
2022-07-26T00:53:31.283Z,25.26
2022-07-26T00:56:01.945Z,25.35
2022-07-26T00:58:34.779Z,25.37
2022-07-26T01:01:05.014Z,25.49
2022-07-26T01:03:36.277Z,25.55
2022-07-26T01:06:09.982Z,25.60
2022-07-26T01:08:40.619Z,25.64
2022-07-26T01:11:10.881Z,25.62
2022-07-26T01:13:50.095Z,25.71
2022-07-26T01:16:20.747Z,25.75
2022-07-26T01:18:50.997Z,25.77
2022-07-26T01:21:22.263Z,25.76
2022-07-26T01:23:55.092Z,25.68
2022-07-26T01:26:25.736Z,25.66
2022-07-26T01:28:56.133Z,25.72
2022-07-26T01:31:27.327Z,25.70
2022-07-26T01:33:57.522Z,25.72
2022-07-26T01:36:28.040Z,25.76
2022-07-26T01:39:00.853Z,25.68
2022-07-26T01:41:37.357Z,25.66
2022-07-26T01:44:10.396Z,25.67
2022-07-26T01:46:40.875Z,25.62
2022-07-26T01:49:11.336Z,25.58
2022-07-26T01:51:41.579Z,25.58
2022-07-26T01:54:14.595Z,25.43
2022-07-26T01:56:46.055Z,25.12
2022-07-26T01:59:16.251Z,25.16
2022-07-26T02:01:46.529Z,25.24
2022-07-26T02:04:29.177Z,25.23
2022-07-26T02:06:59.758Z,25.11
2022-07-26T02:09:39.826Z,24.85
2022-07-26T02:12:11.667Z,24.74
2022-07-26T02:14:41.940Z,24.69
2022-07-26T02:17:12.192Z,24.55
2022-07-26T02:19:42.837Z,24.47
2022-07-26T02:22:13.563Z,24.61
2022-07-26T02:24:46.396Z,24.76
2022-07-26T02:27:16.864Z,24.84
2022-07-26T02:29:46.875Z,24.94
2022-07-26T02:32:17.125Z,24.91
2022-07-26T02:34:47.364Z,24.97
2022-07-26T02:37:17.479Z,25.03
2022-07-26T02:39:50.352Z,24.98
2022-07-26T02:42:20.558Z,24.99
2022-07-26T02:44:50.714Z,24.91
2022-07-26T02:47:20.923Z,24.86
2022-07-26T02:49:51.142Z,24.94
2022-07-26T02:52:21.507Z,24.86
2022-07-26T02:54:54.299Z,24.55
2022-07-26T02:57:24.786Z,24.28
2022-07-26T02:59:54.672Z,24.18
2022-07-26T03:02:24.841Z,24.34
2022-07-26T03:04:55.083Z,24.43
2022-07-26T03:07:25.229Z,24.50
2022-07-26T03:09:58.357Z,24.57
2022-07-26T03:12:29.263Z,24.60
2022-07-26T03:14:59.410Z,24.63
2022-07-26T03:17:29.791Z,24.59
2022-07-26T03:20:03.127Z,24.62
2022-07-26T03:22:33.332Z,24.66
2022-07-26T03:25:06.738Z,24.69
2022-07-26T03:27:37.118Z,24.64
2022-07-26T03:30:08.713Z,24.63
2022-07-26T03:32:38.977Z,24.56
2022-07-26T03:35:10.942Z,24.53
2022-07-26T03:37:45.629Z,24.47
2022-07-26T03:40:20.810Z,24.44
2022-07-26T03:42:51.707Z,24.45
2022-07-26T03:45:22.036Z,24.44
2022-07-26T03:47:53.516Z,24.47
2022-07-26T03:50:23.719Z,24.48
2022-07-26T03:52:53.866Z,24.46
2022-07-26T03:55:39.183Z,24.23
2022-07-26T03:58:09.310Z,24.21
2022-07-26T04:00:39.725Z,24.12
2022-07-26T04:03:09.596Z,23.89
2022-07-26T04:05:40.731Z,23.78
2022-07-26T04:08:19.202Z,23.67
2022-07-26T04:10:53.892Z,23.60
2022-07-26T04:13:24.359Z,23.50
2022-07-26T04:15:55.021Z,23.35
2022-07-26T04:18:26.760Z,23.39
2022-07-26T04:20:56.995Z,23.35
2022-07-26T04:23:27.287Z,23.20
2022-07-26T04:26:00.075Z,23.11
2022-07-26T04:28:30.314Z,23.02
2022-07-26T04:31:01.731Z,23.01
2022-07-26T04:33:33.183Z,23.17
2022-07-26T04:36:04.039Z,23.31
2022-07-26T04:38:34.800Z,23.18
2022-07-26T04:41:07.728Z,23.08
2022-07-26T04:43:38.034Z,23.21
2022-07-26T04:46:08.489Z,23.34
2022-07-26T04:48:41.252Z,23.54
2022-07-26T04:51:11.420Z,23.55
2022-07-26T04:53:41.562Z,23.62
2022-07-26T04:56:14.557Z,23.71
2022-07-26T04:58:44.785Z,23.81
2022-07-26T05:01:15.260Z,23.64
2022-07-26T05:03:45.257Z,23.56
2022-07-26T05:06:15.415Z,23.62
2022-07-26T05:08:45.816Z,23.39
2022-07-26T05:11:18.382Z,23.16
2022-07-26T05:13:48.518Z,23.10
2022-07-26T05:16:18.853Z,23.08
2022-07-26T05:18:49.585Z,23.08
2022-07-26T05:21:21.313Z,23.10
2022-07-26T05:23:51.492Z,23.12
2022-07-26T05:26:24.566Z,23.33
2022-07-26T05:28:56.124Z,23.30
2022-07-26T05:31:26.567Z,23.18
2022-07-26T05:33:56.559Z,23.29
2022-07-26T05:36:26.859Z,23.33
2022-07-26T05:38:57.122Z,23.27
2022-07-26T05:41:30.399Z,23.18
2022-07-26T05:44:00.693Z,23.17
2022-07-26T05:46:30.937Z,23.31
2022-07-26T05:49:01.481Z,23.45
2022-07-26T05:51:31.515Z,23.36
2022-07-26T05:54:02.941Z,23.53
2022-07-26T05:56:36.078Z,23.56
2022-07-26T05:59:06.382Z,23.55
2022-07-26T06:01:36.703Z,23.44
2022-07-26T06:04:09.504Z,23.55
2022-07-26T06:06:40.056Z,23.56
2022-07-26T06:09:10.252Z,23.59
2022-07-26T06:11:43.051Z,23.64
2022-07-26T06:14:13.625Z,23.70
2022-07-26T06:16:44.456Z,23.65
2022-07-26T06:19:14.394Z,23.75
2022-07-26T06:21:45.790Z,23.80
2022-07-26T06:24:16.418Z,23.81
2022-07-26T06:26:54.752Z,23.82
2022-07-26T06:29:32.139Z,23.78
2022-07-26T06:32:03.096Z,23.94
2022-07-26T06:34:33.106Z,24.08
2022-07-26T06:37:03.891Z,24.10
2022-07-26T06:39:34.068Z,24.25
2022-07-26T06:42:07.267Z,24.29
2022-07-26T06:44:37.464Z,24.32
2022-07-26T06:47:08.141Z,24.36
2022-07-26T06:49:38.404Z,24.41
2022-07-26T06:52:08.999Z,24.64
2022-07-26T06:54:39.101Z,24.79
2022-07-26T06:57:12.025Z,24.86
2022-07-26T06:59:42.235Z,24.90
2022-07-26T07:02:12.663Z,24.99
2022-07-26T07:04:42.952Z,25.09
2022-07-26T07:07:13.268Z,24.93
2022-07-26T07:09:45.068Z,24.97
2022-07-26T07:12:17.644Z,25.10
2022-07-26T07:14:47.960Z,25.22
2022-07-26T07:17:22.673Z,25.33
2022-07-26T07:19:53.048Z,25.64
2022-07-26T07:22:23.375Z,25.92
2022-07-26T07:24:53.264Z,25.93
2022-07-26T07:27:27.279Z,26.10
2022-07-26T07:29:57.783Z,26.14
2022-07-26T07:32:27.741Z,26.20
2022-07-26T07:34:58.691Z,26.46
2022-07-26T07:37:28.962Z,26.51
2022-07-26T07:40:19.175Z,26.42
2022-07-26T07:42:51.912Z,26.43
2022-07-26T07:45:22.280Z,26.40
2022-07-26T07:47:52.179Z,26.18
2022-07-26T07:50:22.301Z,26.16
2022-07-26T07:52:59.087Z,26.21
2022-07-26T07:55:41.081Z,26.11
2022-07-26T07:58:18.939Z,26.29
2022-07-26T08:00:50.003Z,26.48
2022-07-26T08:03:20.325Z,26.61
2022-07-26T08:05:51.080Z,26.79
2022-07-26T08:08:23.024Z,27.32
2022-07-26T08:10:54.958Z,27.68
2022-07-26T08:13:29.643Z,28.09
2022-07-26T08:16:00.877Z,28.50
2022-07-26T08:18:31.192Z,28.15
2022-07-26T08:21:01.147Z,27.65
2022-07-26T08:23:31.370Z,27.36
2022-07-26T08:26:06.304Z,27.01
2022-07-26T08:28:48.111Z,27.00
2022-07-26T08:31:21.180Z,27.77
2022-07-26T08:33:51.985Z,27.57
2022-07-26T08:36:22.165Z,27.28
2022-07-26T08:38:52.650Z,27.51
2022-07-26T08:41:23.314Z,27.56
2022-07-26T08:43:56.319Z,27.29
2022-07-26T08:46:28.372Z,27.33
2022-07-26T08:48:59.352Z,28.17
2022-07-26T08:51:30.409Z,29.10
2022-07-26T08:54:06.312Z,28.36
2022-07-26T08:56:38.908Z,27.84
2022-07-26T08:59:21.676Z,28.23
2022-07-26T09:01:59.214Z,27.62
2022-07-26T09:04:34.546Z,27.20
2022-07-26T09:07:10.426Z,26.81
2022-07-26T09:10:00.282Z,26.99
2022-07-26T09:12:32.554Z,28.52
2022-07-26T09:15:09.867Z,28.94
2022-07-26T09:17:45.969Z,30.17
2022-07-26T09:20:18.978Z,30.92
2022-07-26T09:23:05.047Z,29.23
2022-07-26T09:25:37.539Z,29.26
2022-07-26T09:28:24.909Z,29.13
2022-07-26T09:31:00.697Z,28.50
2022-07-26T09:33:48.023Z,28.49
2022-07-26T09:36:21.720Z,27.91
2022-07-26T09:38:54.206Z,28.07
2022-07-26T09:41:27.895Z,27.81
2022-07-26T09:44:00.967Z,27.65
2022-07-26T09:46:37.981Z,27.76
2022-07-26T09:49:21.544Z,27.52
2022-07-26T09:51:53.857Z,27.49
2022-07-26T09:54:35.471Z,29.81
2022-07-26T09:57:06.171Z,29.01
2022-07-26T09:59:36.611Z,28.69
2022-07-26T10:02:10.413Z,28.11
2022-07-26T10:04:40.851Z,27.69
2022-07-26T10:07:11.755Z,27.72
2022-07-26T10:09:50.456Z,27.57
2022-07-26T10:12:24.955Z,27.87
2022-07-26T10:14:57.542Z,28.05
2022-07-26T10:17:51.608Z,28.07
2022-07-26T10:20:47.257Z,27.69
2022-07-26T10:23:45.684Z,27.91
2022-07-26T10:26:43.109Z,28.24
2022-07-26T10:29:29.718Z,29.68
2022-07-26T10:32:21.208Z,30.31
2022-07-26T10:34:54.099Z,30.71
2022-07-26T10:37:29.864Z,30.36
2022-07-26T10:40:25.614Z,32.03
2022-07-26T10:42:55.977Z,32.61
2022-07-26T10:45:27.289Z,32.92
2022-07-26T10:48:18.673Z,33.52
2022-07-26T10:50:54.818Z,33.87
2022-07-26T10:53:27.966Z,34.06
2022-07-26T10:56:01.549Z,34.69
2022-07-26T10:58:45.006Z,33.58
2022-07-26T11:01:16.229Z,33.24
2022-07-26T11:03:48.155Z,32.54
2022-07-26T11:06:22.751Z,31.56
2022-07-26T11:08:52.932Z,32.12
2022-07-26T11:11:32.604Z,33.64
2022-07-26T11:14:12.511Z,34.19
2022-07-26T11:16:45.261Z,34.62
2022-07-26T11:19:17.864Z,35.43
2022-07-26T11:21:58.773Z,36.05
2022-07-26T11:24:29.522Z,35.58
2022-07-26T11:27:01.138Z,33.62
2022-07-26T11:29:38.491Z,32.36
2022-07-26T11:32:22.136Z,32.10
2022-07-26T11:35:02.016Z,34.38
2022-07-26T11:37:34.729Z,34.98
2022-07-26T11:40:05.058Z,34.61
2022-07-26T11:42:35.310Z,35.47
2022-07-26T11:45:05.663Z,34.76
2022-07-26T11:47:36.890Z,34.97
2022-07-26T11:50:22.544Z,34.55
2022-07-26T11:52:56.504Z,34.15
2022-07-26T11:55:31.617Z,32.96
2022-07-26T11:58:08.896Z,32.41
2022-07-26T12:00:39.635Z,32.14
2022-07-26T12:03:09.922Z,32.04
2022-07-26T12:05:42.140Z,31.63
2022-07-26T12:08:14.991Z,31.85
2022-07-26T12:10:45.213Z,34.08
2022-07-26T12:13:19.112Z,35.70
2022-07-26T12:15:51.755Z,37.07
2022-07-26T12:18:27.553Z,38.21
2022-07-26T12:21:05.608Z,38.96
2022-07-26T12:23:51.234Z,37.56
2022-07-26T12:26:26.726Z,35.74
2022-07-26T12:28:57.971Z,35.49
2022-07-26T12:31:31.363Z,35.02
2022-07-26T12:34:02.261Z,34.53
2022-07-26T12:36:32.471Z,33.61
2022-07-26T12:39:05.755Z,35.08
2022-07-26T12:41:38.503Z,36.49
2022-07-26T12:44:12.750Z,37.71
2022-07-26T12:46:45.019Z,38.85
2022-07-26T12:49:15.967Z,37.28
2022-07-26T12:51:46.221Z,35.86
2022-07-26T12:54:19.065Z,35.06
2022-07-26T12:56:49.285Z,35.16
2022-07-26T12:59:19.787Z,36.34
2022-07-26T13:01:50.140Z,35.96
2022-07-26T13:04:20.563Z,38.22
2022-07-26T13:06:50.825Z,39.85
2022-07-26T13:09:23.630Z,39.16
2022-07-26T13:11:53.869Z,36.96
2022-07-26T13:14:24.167Z,35.82
2022-07-26T13:16:54.399Z,34.93
2022-07-26T13:19:24.896Z,34.40
2022-07-26T13:21:55.201Z,33.99
2022-07-26T13:24:29.040Z,36.33
2022-07-26T13:27:00.971Z,38.58
2022-07-26T13:29:32.085Z,37.27
2022-07-26T13:32:02.410Z,35.58
2022-07-26T13:34:35.042Z,34.68
2022-07-26T13:37:08.254Z,34.10
2022-07-26T13:39:42.038Z,33.58
2022-07-26T13:42:12.282Z,33.04
2022-07-26T13:44:42.453Z,32.53
2022-07-26T13:47:12.688Z,32.51
2022-07-26T13:49:42.879Z,32.71
2022-07-26T13:52:16.694Z,33.04
2022-07-26T13:54:49.860Z,33.53
2022-07-26T13:57:20.100Z,33.77
2022-07-26T13:59:50.329Z,33.30
2022-07-26T14:02:20.930Z,32.74
2022-07-26T14:04:51.367Z,32.31
2022-07-26T14:07:21.600Z,32.07
2022-07-26T14:09:54.392Z,32.27
2022-07-26T14:12:24.607Z,32.64
2022-07-26T14:14:54.761Z,33.29
2022-07-26T14:17:24.951Z,33.60
2022-07-26T14:19:55.129Z,33.39
2022-07-26T14:22:25.715Z,32.99
2022-07-26T14:24:58.519Z,32.89
2022-07-26T14:27:28.766Z,33.02
2022-07-26T14:29:59.041Z,32.79
2022-07-26T14:32:29.305Z,33.56
2022-07-26T14:34:59.685Z,34.04
2022-07-26T14:37:43.342Z,33.72
2022-07-26T14:40:20.509Z,34.08
2022-07-26T14:42:50.792Z,33.22
2022-07-26T14:45:20.981Z,33.19
2022-07-26T14:47:51.237Z,33.07
2022-07-26T14:50:23.517Z,33.44
2022-07-26T14:52:53.741Z,33.20
2022-07-26T14:55:26.611Z,33.21
2022-07-26T14:57:56.783Z,35.34
2022-07-26T15:00:27.062Z,36.70
2022-07-26T15:02:57.537Z,37.48
2022-07-26T15:05:28.090Z,37.23
2022-07-26T15:08:01.627Z,37.80
2022-07-26T15:10:41.386Z,37.51
2022-07-26T15:13:12.923Z,37.13
2022-07-26T15:15:43.334Z,35.17
2022-07-26T15:18:13.723Z,34.15
2022-07-26T15:20:44.622Z,33.53
2022-07-26T15:23:16.121Z,33.00
2022-07-26T15:25:49.188Z,32.52
2022-07-26T15:28:19.886Z,32.10
2022-07-26T15:30:50.168Z,31.69
2022-07-26T15:33:20.919Z,31.16
2022-07-26T15:35:53.369Z,30.75
2022-07-26T15:38:23.566Z,30.02
2022-07-26T15:40:56.463Z,29.58
2022-07-26T15:43:44.091Z,29.43
2022-07-26T15:46:19.757Z,29.32
2022-07-26T15:48:52.073Z,29.37
2022-07-26T15:51:25.074Z,29.64
2022-07-26T15:53:55.272Z,29.80
2022-07-26T15:56:28.224Z,29.96
2022-07-26T15:58:58.376Z,29.83
2022-07-26T16:01:28.659Z,29.56
2022-07-26T16:03:58.976Z,29.50
2022-07-26T16:06:29.144Z,29.44
2022-07-26T16:09:18.114Z,29.52
2022-07-26T16:11:52.859Z,29.60
2022-07-26T16:14:23.116Z,29.49
2022-07-26T16:16:53.295Z,29.40
2022-07-26T16:19:23.530Z,29.36
2022-07-26T16:21:53.667Z,29.34
2022-07-26T16:24:25.684Z,29.02
2022-07-26T16:26:58.647Z,28.89
2022-07-26T16:29:28.880Z,28.96
2022-07-26T16:31:59.200Z,28.88
2022-07-26T16:34:30.259Z,28.78
2022-07-26T16:37:00.408Z,28.49
2022-07-26T16:39:30.482Z,28.14
2022-07-26T16:42:06.802Z,28.17
2022-07-26T16:44:38.805Z,28.15
2022-07-26T16:47:09.236Z,28.20
2022-07-26T16:49:39.574Z,28.22
2022-07-26T16:52:09.934Z,28.21
2022-07-26T16:54:40.113Z,28.21
2022-07-26T16:57:13.081Z,28.14
2022-07-26T16:59:43.286Z,27.97
2022-07-26T17:02:13.408Z,27.75
2022-07-26T17:04:43.651Z,27.58
2022-07-26T17:07:28.888Z,27.38
2022-07-26T17:10:00.217Z,27.15
2022-07-26T17:12:33.207Z,27.10
2022-07-26T17:15:04.084Z,26.87
2022-07-26T17:17:34.501Z,26.81
2022-07-26T17:20:04.507Z,26.88
2022-07-26T17:22:34.737Z,26.95
2022-07-26T17:25:04.801Z,26.85
2022-07-26T17:27:38.039Z,26.92
2022-07-26T17:30:10.562Z,26.95
2022-07-26T17:32:40.805Z,26.93
2022-07-26T17:35:11.456Z,26.91
2022-07-26T17:37:41.392Z,26.92
2022-07-26T17:40:16.307Z,26.83
2022-07-26T17:42:49.306Z,26.70
2022-07-26T17:45:19.503Z,26.61
2022-07-26T17:47:49.683Z,26.63
2022-07-26T17:50:36.020Z,26.63
2022-07-26T17:53:07.197Z,26.65
2022-07-26T17:55:37.263Z,26.67
2022-07-26T17:58:10.062Z,26.63
2022-07-26T18:00:40.618Z,26.62
2022-07-26T18:03:10.835Z,26.64
2022-07-26T18:05:41.625Z,26.61
2022-07-26T18:08:12.001Z,26.56
2022-07-26T18:10:44.443Z,26.48
2022-07-26T18:13:20.681Z,26.47
2022-07-26T18:15:50.934Z,26.40
2022-07-26T18:18:21.979Z,26.31
2022-07-26T18:20:52.578Z,26.23
2022-07-26T18:23:22.807Z,26.12
2022-07-26T18:25:53.928Z,26.02
2022-07-26T18:28:27.053Z,25.99
2022-07-26T18:30:57.441Z,25.98
2022-07-26T18:33:27.437Z,25.94
2022-07-26T18:36:01.860Z,25.84
2022-07-26T18:38:32.139Z,25.78
2022-07-26T18:41:02.332Z,25.71
2022-07-26T18:43:35.904Z,25.59
2022-07-26T18:46:06.442Z,25.53
2022-07-26T18:48:37.209Z,25.45
2022-07-26T18:51:12.061Z,25.36
2022-07-26T18:53:42.359Z,25.33
2022-07-26T18:56:12.565Z,25.27
2022-07-26T18:58:45.411Z,25.26
2022-07-26T19:01:16.136Z,25.17
2022-07-26T19:03:46.431Z,25.17
2022-07-26T19:06:16.724Z,25.11
2022-07-26T19:08:46.981Z,25.01
2022-07-26T19:11:17.246Z,24.92
2022-07-26T19:13:50.109Z,24.83
2022-07-26T19:16:20.386Z,24.77
2022-07-26T19:18:55.349Z,24.72
2022-07-26T19:21:27.532Z,24.65
2022-07-26T19:23:58.037Z,24.57
2022-07-26T19:26:28.061Z,24.49
2022-07-26T19:29:00.885Z,24.42
2022-07-26T19:31:32.242Z,24.37
2022-07-26T19:34:02.774Z,24.33
2022-07-26T19:36:33.091Z,24.28
2022-07-26T19:39:04.144Z,24.25
2022-07-26T19:41:34.611Z,24.22
2022-07-26T19:44:07.706Z,24.18
2022-07-26T19:46:37.992Z,24.09
2022-07-26T19:49:10.268Z,24.05
2022-07-26T19:51:41.262Z,24.01
2022-07-26T19:54:12.054Z,23.99
2022-07-26T19:56:42.454Z,23.95
2022-07-26T19:59:20.950Z,23.87
2022-07-26T20:01:56.619Z,23.85
2022-07-26T20:04:28.773Z,23.84
2022-07-26T20:06:58.997Z,23.74
2022-07-26T20:09:29.927Z,23.71
2022-07-26T20:12:00.669Z,23.65
2022-07-26T20:14:33.523Z,23.58
2022-07-26T20:17:03.806Z,23.50
2022-07-26T20:19:42.406Z,23.44
2022-07-26T20:22:13.761Z,23.39
2022-07-26T20:24:44.016Z,23.34
2022-07-26T20:27:14.230Z,23.32
2022-07-26T20:29:47.080Z,23.29
2022-07-26T20:32:17.311Z,23.26
2022-07-26T20:34:48.076Z,23.23
2022-07-26T20:37:18.265Z,23.20
2022-07-26T20:39:48.554Z,23.18
2022-07-26T20:42:21.941Z,23.14
2022-07-26T20:44:55.504Z,23.13
2022-07-26T20:47:25.788Z,23.10
2022-07-26T20:50:01.050Z,23.13
2022-07-26T20:52:33.367Z,23.10
2022-07-26T20:55:03.589Z,23.12
2022-07-26T20:57:34.311Z,23.15
2022-07-26T21:00:11.886Z,23.15
2022-07-26T21:02:42.293Z,23.20
2022-07-26T21:05:13.565Z,23.15
2022-07-26T21:07:58.672Z,23.18
2022-07-26T21:10:30.718Z,23.22
2022-07-26T21:13:01.556Z,23.21
2022-07-26T21:15:34.801Z,23.22
2022-07-26T21:18:05.090Z,23.25
2022-07-26T21:20:35.568Z,23.30
2022-07-26T21:23:16.841Z,23.32
2022-07-26T21:25:48.179Z,23.26
2022-07-26T21:28:18.462Z,23.19
2022-07-26T21:30:51.422Z,23.14
2022-07-26T21:33:21.649Z,23.11
2022-07-26T21:35:51.866Z,23.14
2022-07-26T21:38:22.118Z,23.13
2022-07-26T21:40:52.308Z,23.08
2022-07-26T21:43:22.514Z,23.10
2022-07-26T21:45:55.404Z,23.09
2022-07-26T21:48:27.001Z,23.04
2022-07-26T21:50:57.178Z,23.02
2022-07-26T21:53:27.347Z,23.07
2022-07-26T21:55:57.511Z,23.02
2022-07-26T21:58:28.189Z,23.00
2022-07-26T22:01:06.040Z,22.92
2022-07-26T22:03:39.189Z,22.94
2022-07-26T22:06:10.641Z,22.97
2022-07-26T22:08:41.014Z,22.93
2022-07-26T22:11:11.193Z,22.93
2022-07-26T22:13:42.821Z,22.92
2022-07-26T22:16:15.761Z,22.96
2022-07-26T22:18:45.947Z,22.91
2022-07-26T22:21:16.405Z,22.98
2022-07-26T22:23:46.570Z,23.01
2022-07-26T22:26:20.793Z,23.03
2022-07-26T22:28:50.952Z,23.09
2022-07-26T22:31:23.824Z,23.06
2022-07-26T22:33:54.018Z,23.05
2022-07-26T22:36:24.752Z,23.06
2022-07-26T22:38:55.171Z,22.97
2022-07-26T22:41:25.339Z,22.89
2022-07-26T22:43:55.595Z,22.74
2022-07-26T22:46:29.453Z,22.62
2022-07-26T22:48:59.883Z,22.45
2022-07-26T22:51:30.166Z,22.38
2022-07-26T22:54:00.472Z,22.35
2022-07-26T22:56:30.938Z,22.17
2022-07-26T22:59:01.219Z,22.25
2022-07-26T23:01:34.101Z,22.26
2022-07-26T23:04:05.027Z,22.25
2022-07-26T23:06:36.420Z,22.34
2022-07-26T23:09:06.864Z,22.35
2022-07-26T23:11:37.220Z,22.37
2022-07-26T23:14:07.548Z,22.35
2022-07-26T23:16:40.970Z,22.33
2022-07-26T23:19:11.526Z,22.36
2022-07-26T23:21:41.876Z,22.30
2022-07-26T23:24:12.326Z,22.32
2022-07-26T23:26:42.524Z,22.29
2022-07-26T23:29:13.279Z,22.27
2022-07-26T23:31:46.470Z,22.23
2022-07-26T23:34:16.780Z,22.19
2022-07-26T23:36:47.082Z,22.08
2022-07-26T23:39:17.479Z,22.03
2022-07-26T23:41:47.651Z,22.03
2022-07-26T23:44:17.858Z,21.83
2022-07-26T23:46:50.757Z,21.69
2022-07-26T23:49:21.054Z,21.59
2022-07-26T23:51:51.363Z,21.60
2022-07-26T23:54:21.615Z,21.63
2022-07-26T23:56:51.797Z,21.54
2022-07-26T23:59:22.043Z,21.57
